x

Big Carlos Pass, Fl (bgcf1) Weather Station

4:54pm - Mon 27th Jul 2015 All times are EDT. -4 hours from GMT.

  • Wind
    5mph, 7mph gusts
  • Air Temp 82°f
  • Sea Pressure 1015.3mb
  • Big Carlos Pass, Fl
  • Big Carlos Pass, Fl

More Historic Weather Station data

Upgrade to MSW Pro to gain access to the past 30 days of data for over 8000 Wavebouys and Weather Stations around the globe.

Join Pro

Comparision Forecast

View Surf forecast
   
Mon 07/27 4:54pm 5 7 mph 1015.3mb 82f
4:48pm 6 7 mph 1015.3mb 82f
3:54pm 3 5 mph 1015.6mb 81f
3:48pm 1 3 mph 1015.6mb 81f
2:54pm 8 11 mph 1015.8mb 78f
2:48pm 9 15 mph 1015.9mb 78f
1:54pm 9 11 mph 1016.2mb 83f
1:48pm 8 11 mph 1016.2mb 83f
12:54pm 17 21 mph 1016.3mb 83f
12:48pm 16 18 mph 1016.3mb 84f
11:54am 16 20 mph 1016.1mb 82f
11:48am 16 18 mph 1016mb 82f
10:54am 14 18 mph 1016.3mb 81f
10:48am 14 18 mph 1016.3mb 81f
9:54am 15 23 mph 1015.6mb 80f
9:48am 22 31 mph 1015.4mb 80f
8:54am 9 11 mph 1014.8mb 82f
8:48am 10 14 mph 1014.6mb 81f
7:54am 16 18 mph 1014.5mb 80f
7:48am 18 24 mph 1014.5mb 80f
6:54am 15 20 mph 1013.6mb 80f
6:48am 13 20 mph 1013.7mb 80f
5:54am 20 23 mph 1012.9mb 84f
5:48am 18 23 mph 1012.9mb 84f
4:54am 20 22 mph 1012.4mb 83f
4:48am 17 22 mph 1012.3mb 83f
3:54am 15 17 mph 1012.9mb 83f
3:48am 16 20 mph 1012.9mb 83f
2:54am 20 23 mph 1013.2mb 83f
2:48am 20 22 mph 1013.3mb 83f
1:54am 20 23 mph 1013.5mb 83f
1:48am 18 22 mph 1013.6mb 83f
12:54am 17 21 mph 1013.9mb 83f
12:48am 16 20 mph 1013.9mb 83f
Sun 07/26 11:54pm 18 21 mph 1014mb 83f
11:48pm 17 20 mph 1014mb 83f
10:54pm 18 21 mph 1014mb 82f
10:48pm 20 22 mph 1013.9mb 82f
9:54pm 21 23 mph 1013.5mb 82f
9:48pm 17 20 mph 1013.4mb 82f
8:54pm 22 25 mph 1013mb 82f
8:48pm 20 23 mph 1013mb 82f
7:54pm 23 26 mph 1012.9mb 81f
7:48pm 24 26 mph 1012.8mb 81f
6:54pm 26 30 mph 1012mb 81f
6:48pm 26 30 mph 1012.1mb 81f
5:54pm 24 28 mph 1012.3mb 80f
5:48pm 26 29 mph 1012.3mb 80f
4:54pm 28 33 mph 1012.4mb 80f
4:48pm 23 32 mph 1012.7mb 79f
3:54pm 29 33 mph 1012.9mb 78f
3:48pm 28 33 mph 1013.1mb 78f
2:54pm 18 23 mph 1012.9mb 81f
2:48pm 20 23 mph 1012.9mb 81f
1:54pm 7 13 mph 1014.4mb 77f
1:48pm 6 10 mph 1014.5mb 77f
12:54pm 14 18 mph 1013.9mb 79f
12:48pm 13 16 mph 1013.9mb 79f
11:54am 22 29 mph 1014mb 78f
11:48am 24 30 mph 1014mb 78f
10:54am 11 23 mph 1013.4mb 80f
10:48am 7 14 mph 1013.4mb 79f
9:54am 8 13 mph 1013.3mb 81f
9:48am 8 10 mph 1013.3mb 82f
8:54am 5 7 mph 1013.1mb 80f
8:48am 6 10 mph 1013.1mb 79f
6:54am 8 14 mph 1011.7mb 81f
6:48am 2 6 mph 1011.7mb 78f
5:54am 3 5 mph 1011.7mb 78f
5:48am 6
mph
1011.6mb 77f
4:54am 7 10 mph 1011.7mb 77f
4:48am 9 13 mph 1011.7mb 76f
3:54am 8 10 mph 1011.6mb 83f
3:48am 8 10 mph 1011.7mb 82f
2:54am 10 11 mph 1012mb 82f
2:48am 9 13 mph 1012.1mb 82f
1:54am 10 13 mph 1012.8mb 81f
1:48am 11 14 mph 1012.8mb 81f
12:54am 15 17 mph 1013.3mb 80f
12:48am 14 16 mph 1013.4mb 80f
Sat 07/25 11:54pm 14 16 mph 1013.3mb 82f
11:48pm 14 16 mph 1013.4mb 81f
10:54pm 6 8 mph 1013.7mb 81f
10:48pm 7 11 mph 1013.7mb 82f
9:54pm 10 14 mph 1013.4mb 83f
9:48pm 11 16 mph 1013.4mb 83f
8:54pm 14 17 mph 1013.1mb 83f
8:48pm 14 17 mph 1013.1mb 83f
7:54pm 7 14 mph 1013.5mb 82f
7:48pm 8 15 mph 1013.4mb 82f
6:54pm 17 22 mph 1012.8mb 82f
6:48pm 17 22 mph 1012.8mb 82f
4:54pm 15 22 mph 1013.4mb 80f
4:48pm 15 20 mph 1013.6mb 80f
3:54pm 20 25 mph 1013.9mb 81f
3:48pm 22 26 mph 1014mb 81f
2:54pm 9 16 mph 1015.2mb 80f
2:48pm 8 14 mph 1015.3mb 80f
1:54pm 10 16 mph 1014.9mb 82f
1:48pm 15 20 mph 1014.9mb 82f
12:54pm 16 23 mph 1015.4mb 78f
12:48pm 20 25 mph 1015.4mb 77f
11:54am 17 23 mph 1015mb 83f
11:48am 13 14 mph 1015.1mb 83f
10:54am 6 7 mph 1015.6mb 82f
10:48am 6 7 mph 1015.6mb 81f
9:54am 1 3 mph 1015.9mb 77f
9:48am 1 3 mph 1015.8mb 77f
8:54am 6 9 mph 1015.7mb 76f
8:48am 7 9 mph 1015.6mb 76f
7:54am 5 11 mph 1015.4mb 76f
7:48am 3 9 mph 1015.3mb 76f
6:54am 9 15 mph 1014.9mb 76f
6:48am 13 16 mph 1014.6mb 76f
5:54am 11 20 mph 1006mb 81f
5:48am 8 16 mph 1013.6mb 82f
4:54am 3 5 mph 1013.7mb 83f
4:48am 6
mph
1013.8mb 83f
3:54am 5 7 mph 1014.2mb 82f
3:48am 3 5 mph 1014.2mb 81f
2:54am 5 8 mph 1014.3mb 81f
2:48am 6 9 mph 1014.3mb 80f
1:54am 10 15 mph 1015.2mb 78f
1:48am 6 13 mph 1015.3mb 78f
12:54am 14 18 mph 1016mb 78f
12:48am 14 22 mph 1016mb 79f
Fri 07/24 11:54pm 9 15 mph 1016.1mb 85f
11:48pm 9 14 mph 1016.1mb 85f
10:54pm 6 10 mph 1016.2mb 84f
10:48pm 6 10 mph 1016.1mb 84f